Time;durP1;ratioP1;P1;durP2;ratioP2;P2;SDS_P1;SDS_P2;PMS_P1;PMS_P2;Temp;Humidity;BMP_temperature;BMP_pressure;BME280_temperature;BME280_humidity;BME280_pressure;Samples;Min_cycle;Max_cycle;Signal;HPM_P1;HPM_P2
2022/02/13 00:00:53;;;;;;;9.77;2.00;;;23.90;64.30;;;;;;5034297;28;20177;-77
2022/02/13 00:03:21;;;;;;;10.67;2.10;;;23.60;64.20;;;;;;5032660;28;20222;-75
2022/02/13 00:05:49;;;;;;;6.40;2.07;;;23.40;65.10;;;;;;5033353;28;20229;-79
2022/02/13 00:08:17;;;;;;;7.93;1.80;;;23.30;63.50;;;;;;5033771;28;20199;-75
2022/02/13 00:10:45;;;;;;;7.03;1.53;;;23.20;64.70;;;;;;5029795;28;20275;-75
2022/02/13 00:13:12;;;;;;;6.30;1.70;;;23.30;63.90;;;;;;5033480;28;20238;-75
2022/02/13 00:15:40;;;;;;;11.70;2.27;;;23.80;62.10;;;;;;5032597;28;20242;-76
2022/02/13 00:18:07;;;;;;;9.77;1.77;;;24.00;60.90;;;;;;5032888;28;20176;-76
2022/02/13 00:20:34;;;;;;;11.07;3.30;;;23.90;60.80;;;;;;5031431;28;20172;-75
2022/02/13 00:23:02;;;;;;;10.00;2.30;;;24.40;60.20;;;;;;5031094;28;20295;-77
2022/02/13 00:25:29;;;;;;;10.57;2.47;;;24.50;59.90;;;;;;5031384;28;20180;-76
2022/02/13 00:27:57;;;;;;;7.47;1.60;;;24.90;59.00;;;;;;5029653;28;20580;-74
2022/02/13 00:30:24;;;;;;;12.70;1.93;;;25.20;56.00;;;;;;5031991;28;20722;-76
2022/02/13 00:32:52;;;;;;;7.23;3.37;;;24.90;55.20;;;;;;5032328;28;20223;-77
2022/02/13 00:35:19;;;;;;;7.77;2.17;;;24.80;55.90;;;;;;5032094;28;20176;-77
2022/02/13 00:37:47;;;;;;;6.97;1.87;;;24.70;55.50;;;;;;5048002;28;20653;-78
2022/02/13 00:40:14;;;;;;;8.57;2.17;;;24.80;55.90;;;;;;5032526;28;20176;-77
2022/02/13 00:42:41;;;;;;;9.63;1.63;;;24.50;53.70;;;;;;5032504;28;20315;-78
2022/02/13 00:45:11;;;;;;;7.70;2.57;;;24.80;54.90;;;;;;5027277;28;20267;-76
2022/02/13 00:47:38;;;;;;;6.10;1.43;;;25.10;52.60;;;;;;5032807;28;20200;-77
2022/02/13 00:50:06;;;;;;;5.67;1.37;;;25.10;51.10;;;;;;5032588;28;20196;-75
2022/02/13 00:52:34;;;;;;;6.27;2.47;;;25.20;51.00;;;;;;5032356;28;20644;-75
2022/02/13 00:55:01;;;;;;;8.73;2.60;;;25.10;52.70;;;;;;5031868;28;20587;-74
2022/02/13 00:57:29;;;;;;;9.60;2.60;;;25.20;52.30;;;;;;5030494;28;20208;-76
2022/02/13 00:59:56;;;;;;;8.63;2.00;;;25.20;52.40;;;;;;5031517;28;20201;-75
2022/02/13 01:02:23;;;;;;;8.00;1.97;;;24.80;54.00;;;;;;5032061;28;20208;-74
2022/02/13 01:04:50;;;;;;;10.33;2.80;;;24.50;55.50;;;;;;5031308;28;20177;-77
2022/02/13 01:07:18;;;;;;;11.03;1.63;;;24.60;55.70;;;;;;5032172;28;20191;-76
2022/02/13 01:09:45;;;;;;;5.83;1.60;;;24.90;54.60;;;;;;5030989;28;20195;-76
2022/02/13 01:12:13;;;;;;;6.97;1.50;;;25.20;54.50;;;;;;5028133;28;20188;-76
2022/02/13 01:14:40;;;;;;;8.87;1.77;;;25.30;53.70;;;;;;5030382;28;20271;-79
2022/02/13 01:17:08;;;;;;;7.17;2.60;;;25.70;51.40;;;;;;5030160;28;20184;-76
2022/02/13 01:19:35;;;;;;;11.50;2.33;;;25.90;50.80;;;;;;5029760;28;20189;-77
2022/02/13 01:22:04;;;;;;;9.67;2.50;;;26.20;51.70;;;;;;5026685;28;20623;-78
2022/02/13 01:24:33;;;;;;;6.77;1.50;;;26.20;50.90;;;;;;5032519;28;20717;-78
2022/02/13 01:27:00;;;;;;;10.40;2.37;;;25.90;50.20;;;;;;5031120;28;20647;-78
2022/02/13 01:29:28;;;;;;;6.30;2.60;;;25.80;51.50;;;;;;5031367;28;20192;-77
2022/02/13 01:31:56;;;;;;;7.30;2.17;;;26.00;52.40;;;;;;5024432;28;20184;-76
2022/02/13 01:34:23;;;;;;;8.77;2.10;;;26.60;50.70;;;;;;5032345;28;20188;-76
2022/02/13 01:36:50;;;;;;;11.57;2.13;;;26.60;50.50;;;;;;5032185;28;20538;-77
2022/02/13 01:39:18;;;;;;;8.70;1.43;;;26.60;51.30;;;;;;5032157;28;20260;-75
2022/02/13 01:41:49;;;;;;;8.03;1.90;;;26.30;51.30;;;;;;5031419;28;20247;-76
2022/02/13 01:44:27;;;;;;;9.07;2.07;;;26.40;51.30;;;;;;5031843;28;20179;-77
2022/02/13 01:46:55;;;;;;;7.30;1.50;;;26.30;51.20;;;;;;5031707;28;20195;-74
2022/02/13 01:49:23;;;;;;;9.00;1.60;;;26.10;51.20;;;;;;5031593;28;20184;-78
2022/02/13 01:51:51;;;;;;;9.10;1.47;;;26.20;50.60;;;;;;5031049;28;20550;-75
2022/02/13 01:54:21;;;;;;;12.67;2.77;;;26.50;50.00;;;;;;5031428;28;20586;-75
2022/02/13 01:56:48;;;;;;;7.00;1.83;;;26.40;49.80;;;;;;5031490;28;20295;-77
2022/02/13 01:59:16;;;;;;;9.47;2.37;;;26.60;50.30;;;;;;5031706;28;20601;-75
2022/02/13 02:01:43;;;;;;;7.77;1.90;;;26.10;49.30;;;;;;5031194;28;20231;-75
2022/02/13 02:04:11;;;;;;;7.90;1.60;;;26.50;49.70;;;;;;5031420;28;21424;-75
2022/02/13 02:06:39;;;;;;;9.07;2.10;;;26.30;49.40;;;;;;5031677;28;20259;-75
2022/02/13 02:09:07;;;;;;;8.47;1.87;;;26.40;49.00;;;;;;5030293;28;20215;-81
2022/02/13 02:11:35;;;;;;;7.90;1.57;;;26.10;49.70;;;;;;5029352;28;20581;-74
2022/02/13 02:14:02;;;;;;;11.73;1.80;;;26.40;49.80;;;;;;5030337;28;20263;-74
2022/02/13 02:16:30;;;;;;;11.03;1.67;;;26.60;48.70;;;;;;5026841;28;20204;-74
2022/02/13 02:18:57;;;;;;;13.67;2.27;;;27.20;48.80;;;;;;5030519;28;20670;-75
2022/02/13 02:21:24;;;;;;;7.20;1.47;;;26.80;47.50;;;;;;5029184;28;20185;-76
2022/02/13 02:23:52;;;;;;;11.87;2.20;;;26.30;49.10;;;;;;5031061;28;20180;-75
2022/02/13 02:26:20;;;;;;;10.03;2.60;;;25.80;51.10;;;;;;5030883;28;20177;-75
2022/02/13 02:28:47;;;;;;;6.73;1.90;;;25.90;51.60;;;;;;5029115;28;20200;-77
2022/02/13 02:31:15;;;;;;;11.60;1.90;;;26.20;51.80;;;;;;5031187;28;20200;-76
2022/02/13 02:33:42;;;;;;;10.47;1.80;;;26.20;50.30;;;;;;5036083;28;20674;-73
2022/02/13 02:36:18;;;;;;;7.03;2.33;;;26.50;51.00;;;;;;5030453;28;20267;-77
2022/02/13 02:38:46;;;;;;;6.73;2.13;;;26.80;49.70;;;;;;5031004;28;20200;-74
2022/02/13 02:41:15;;;;;;;9.40;2.00;;;27.20;48.50;;;;;;5029689;28;20236;-74
2022/02/13 02:43:44;;;;;;;6.10;1.60;;;27.20;49.40;;;;;;5028441;28;20200;-74
2022/02/13 02:46:14;;;;;;;7.83;1.90;;;26.90;47.90;;;;;;5033178;28;20216;-73
2022/02/13 02:48:42;;;;;;;6.90;1.90;;;26.40;51.60;;;;;;5031616;28;20188;-74
2022/02/13 02:51:10;;;;;;;10.30;3.33;;;26.00;52.50;;;;;;5034000;28;20522;-74
2022/02/13 02:53:37;;;;;;;12.37;2.73;;;26.20;52.10;;;;;;5045260;28;20640;-74
2022/02/13 02:56:05;;;;;;;10.33;3.20;;;26.30;51.90;;;;;;5035860;28;20181;-74
2022/02/13 02:58:33;;;;;;;8.60;1.90;;;26.20;53.60;;;;;;5032362;28;20184;-74
2022/02/13 03:01:00;;;;;;;9.47;1.97;;;26.30;54.20;;;;;;5045627;28;20608;-73
2022/02/13 03:03:28;;;;;;;7.37;2.00;;;26.40;54.30;;;;;;5032399;28;20251;-74
2022/02/13 03:05:55;;;;;;;17.57;2.30;;;25.80;55.10;;;;;;5032112;28;20530;-74
2022/02/13 03:08:22;;;;;;;7.20;1.83;;;26.00;55.70;;;;;;5037793;28;20180;-74
2022/02/13 03:10:50;;;;;;;13.40;4.20;;;26.70;53.30;;;;;;5034329;28;20555;-73
2022/02/13 03:13:20;;;;;;;10.13;2.37;;;27.00;52.30;;;;;;5037613;28;20185;-75
2022/02/13 03:15:51;;;;;;;10.87;2.30;;;26.90;53.10;;;;;;5034122;28;20183;-76
2022/02/13 03:18:18;;;;;;;7.63;1.83;;;27.20;51.80;;;;;;5033338;28;20188;-79
2022/02/13 03:20:50;;;;;;;16.27;7.17;;;26.90;51.90;;;;;;5033628;28;20184;-76
2022/02/13 03:23:19;;;;;;;11.27;1.97;;;27.10;51.70;;;;;;5034555;28;20588;-78
2022/02/13 03:25:46;;;;;;;7.50;1.70;;;27.20;51.90;;;;;;5033847;28;20203;-73
2022/02/13 03:28:14;;;;;;;7.67;2.13;;;27.30;50.60;;;;;;5030338;28;20186;-76
2022/02/13 03:30:45;;;;;;;7.70;1.70;;;27.30;50.70;;;;;;5032977;28;20180;-72
2022/02/13 03:33:13;;;;;;;6.90;1.83;;;27.10;51.50;;;;;;5032710;28;20260;-75
2022/02/13 03:35:40;;;;;;;11.23;2.07;;;27.20;51.10;;;;;;5033444;28;20188;-74
2022/02/13 03:38:08;;;;;;;9.57;2.30;;;27.30;49.80;;;;;;5034264;28;20191;-76
2022/02/13 03:40:36;;;;;;;9.40;2.00;;;27.10;50.00;;;;;;5033676;28;20573;-73
2022/02/13 03:43:05;;;;;;;9.70;1.90;;;27.10;49.40;;;;;;5033276;28;20224;-77
2022/02/13 03:45:34;;;;;;;5.50;1.73;;;27.10;49.50;;;;;;5032432;28;20168;-75
2022/02/13 03:48:02;;;;;;;6.10;1.90;;;27.50;48.10;;;;;;5034081;28;20212;-74
2022/02/13 03:50:30;;;;;;;7.43;2.20;;;27.80;47.00;;;;;;5031558;28;20275;-72
2022/02/13 03:52:58;;;;;;;8.73;1.60;;;27.80;45.80;;;;;;5033853;28;20643;-74
2022/02/13 03:55:25;;;;;;;6.53;1.50;;;27.90;45.70;;;;;;5033664;28;20644;-78
2022/02/13 03:57:53;;;;;;;5.83;1.57;;;27.90;44.90;;;;;;5032684;28;20274;-74
2022/02/13 04:00:20;;;;;;;6.63;1.50;;;27.60;45.30;;;;;;5033169;28;20539;-78
2022/02/13 04:02:47;;;;;;;5.10;1.73;;;27.40;45.50;;;;;;5033184;28;20220;-73
2022/02/13 04:05:15;;;;;;;8.83;1.70;;;27.50;45.20;;;;;;5033933;28;20776;-75
2022/02/13 04:07:43;;;;;;;7.67;1.83;;;27.80;45.50;;;;;;5032315;28;20179;-79
2022/02/13 04:10:13;;;;;;;6.53;1.77;;;28.40;43.70;;;;;;5030107;28;20242;-76
2022/02/13 04:12:41;;;;;;;6.37;1.83;;;28.10;44.30;;;;;;5033327;28;20234;-75
2022/02/13 04:15:10;;;;;;;6.60;1.57;;;28.30;43.30;;;;;;5033326;28;20181;-75
2022/02/13 04:17:37;;;;;;;7.70;1.63;;;28.30;43.30;;;;;;5032782;28;20195;-77
2022/02/13 04:20:06;;;;;;;6.30;1.57;;;27.80;45.10;;;;;;5033295;28;20173;-85
2022/02/13 04:22:33;;;;;;;8.90;1.77;;;28.10;45.60;;;;;;5032564;28;20227;-76
2022/02/13 04:25:01;;;;;;;9.03;1.60;;;27.70;46.50;;;;;;5032831;28;20187;-76
2022/02/13 04:27:28;;;;;;;5.63;1.30;;;27.70;47.00;;;;;;5032820;28;20184;-78
2022/02/13 04:29:56;;;;;;;4.67;1.93;;;28.40;46.00;;;;;;5027806;28;20539;-85
2022/02/13 04:32:23;;;;;;;8.13;1.70;;;27.50;47.00;;;;;;5033006;28;20188;-75
2022/02/13 04:34:50;;;;;;;9.03;1.80;;;27.80;47.20;;;;;;5031398;28;20176;-76
2022/02/13 04:37:18;;;;;;;7.30;1.50;;;28.60;45.20;;;;;;5031932;28;20176;-76
2022/02/13 04:39:45;;;;;;;7.87;1.90;;;28.30;45.50;;;;;;5032747;28;20188;-75
2022/02/13 04:42:13;;;;;;;9.37;1.67;;;27.90;45.60;;;;;;5032069;28;20597;-73
2022/02/13 04:44:42;;;;;;;12.00;2.00;;;28.10;46.30;;;;;;5031969;28;20189;-74
2022/02/13 04:47:10;;;;;;;8.20;1.80;;;28.40;45.50;;;;;;5032592;28;20176;-77
2022/02/13 04:49:38;;;;;;;11.93;1.83;;;28.80;44.10;;;;;;5032927;28;20547;-74
2022/02/13 04:52:05;;;;;;;9.57;1.90;;;28.90;43.60;;;;;;5032047;28;20189;-79
2022/02/13 04:54:33;;;;;;;8.20;1.60;;;28.30;45.10;;;;;;5032952;28;20623;-79
2022/02/13 04:57:03;;;;;;;10.73;2.30;;;28.30;45.40;;;;;;5032715;28;20203;-75
2022/02/13 04:59:36;;;;;;;5.93;1.57;;;28.20;46.30;;;;;;5031505;28;20632;-83
2022/02/13 05:02:05;;;;;;;12.67;1.93;;;28.60;45.00;;;;;;5032148;28;20277;-79
2022/02/13 05:04:33;;;;;;;7.60;1.75;;;28.60;44.60;;;;;;5032061;28;20654;-75
2022/02/13 05:07:00;;;;;;;10.77;1.87;;;28.60;45.40;;;;;;5031821;28;20253;-73
2022/02/13 05:09:28;;;;;;;7.93;2.67;;;29.20;44.10;;;;;;5030224;28;20177;-77
2022/02/13 05:11:56;;;;;;;14.93;2.70;;;29.00;44.00;;;;;;5029608;28;20198;-76
2022/02/13 05:14:24;;;;;;;9.87;3.87;;;28.80;44.60;;;;;;5026333;28;20275;-74
2022/02/13 05:16:52;;;;;;;13.15;4.78;;;29.90;43.00;;;;;;5046194;28;20210;-77
2022/02/13 05:19:19;;;;;;;9.13;2.03;;;30.60;41.90;;;;;;5030896;28;20215;-75
2022/02/13 05:21:46;;;;;;;7.40;1.50;;;29.50;44.00;;;;;;5030449;28;20283;-76
2022/02/13 05:24:14;;;;;;;9.80;2.17;;;29.30;44.20;;;;;;5031994;28;20192;-75
2022/02/13 05:26:41;;;;;;;8.95;1.83;;;28.70;45.60;;;;;;5031178;28;20191;-76
2022/02/13 05:29:09;;;;;;;9.35;1.67;;;28.10;47.10;;;;;;5030783;28;20181;-75
2022/02/13 05:31:36;;;;;;;11.20;1.92;;;28.20;47.00;;;;;;5031337;28;20180;-76
2022/02/13 05:34:03;;;;;;;8.68;2.08;;;29.30;45.40;;;;;;5032563;28;20191;-76
2022/02/13 05:36:31;;;;;;;6.63;1.83;;;29.70;44.80;;;;;;5031077;28;20215;-75
2022/02/13 05:38:58;;;;;;;10.75;1.98;;;29.10;45.60;;;;;;5031913;28;20256;-76
2022/02/13 05:41:26;;;;;;;10.30;1.92;;;29.00;47.00;;;;;;5031437;28;20277;-80
2022/02/13 05:43:53;;;;;;;13.85;2.13;;;30.00;45.30;;;;;;5031966;28;20177;-79
2022/02/13 05:46:20;;;;;;;12.07;2.03;;;29.30;46.60;;;;;;5031103;28;20650;-74
2022/02/13 05:48:48;;;;;;;6.60;2.23;;;27.50;49.90;;;;;;5032155;28;20191;-78
2022/02/13 05:51:15;;;;;;;10.33;1.83;;;26.90;51.90;;;;;;5030346;28;20508;-75
2022/02/13 05:53:43;;;;;;;7.50;1.93;;;26.80;52.20;;;;;;5031520;28;20180;-81
2022/02/13 05:56:10;;;;;;;9.13;1.97;;;25.80;53.20;;;;;;5029889;28;20226;-74
2022/02/13 05:58:40;;;;;;;11.20;2.00;;;26.40;51.10;;;;;;5028957;28;20229;-76
2022/02/13 06:01:07;;;;;;;7.53;2.27;;;27.30;48.30;;;;;;5030633;28;20550;-73
2022/02/13 06:03:35;;;;;;;6.40;1.60;;;28.20;46.70;;;;;;5029265;28;20211;-77
2022/02/13 06:06:02;;;;;;;13.20;2.20;;;28.30;45.80;;;;;;5029944;28;20218;-75
2022/02/13 06:08:30;;;;;;;9.60;2.07;;;28.00;47.30;;;;;;5031096;28;20181;-74
2022/02/13 06:10:58;;;;;;;13.93;3.90;;;29.00;45.30;;;;;;5046612;28;20192;-77
2022/02/13 06:13:25;;;;;;;7.97;1.87;;;28.40;45.90;;;;;;5030878;28;20670;-75
2022/02/13 06:15:52;;;;;;;8.43;2.30;;;27.90;46.00;;;;;;5029064;28;20246;-76
2022/02/13 06:18:20;;;;;;;9.90;2.17;;;28.30;46.00;;;;;;5030128;28;20180;-74
2022/02/13 06:20:47;;;;;;;8.77;1.83;;;28.60;45.50;;;;;;5029831;28;20276;-74
2022/02/13 06:23:15;;;;;;;8.60;2.00;;;28.80;44.70;;;;;;5030506;28;20216;-77
2022/02/13 06:25:43;;;;;;;7.82;1.65;;;29.40;43.00;;;;;;5031569;28;20173;-79
2022/02/13 06:28:10;;;;;;;10.53;2.33;;;28.90;44.10;;;;;;5030280;28;20187;-76
2022/02/13 06:30:38;;;;;;;11.17;1.83;;;28.10;46.40;;;;;;5031298;28;20183;-76
2022/02/13 06:33:05;;;;;;;8.40;1.93;;;27.50;46.90;;;;;;5028499;28;20177;-73
2022/02/13 06:35:33;;;;;;;8.17;1.87;;;28.00;46.00;;;;;;5031358;28;20177;-75
2022/02/13 06:38:01;;;;;;;7.03;1.63;;;28.90;43.90;;;;;;5030110;28;21531;-75
2022/02/13 06:40:29;;;;;;;7.90;1.60;;;29.20;43.10;;;;;;5032102;28;20256;-73
2022/02/13 06:42:56;;;;;;;7.10;1.70;;;28.60;44.30;;;;;;5034561;28;20244;-75
2022/02/13 06:45:24;;;;;;;11.73;1.97;;;28.40;45.30;;;;;;5034838;28;20533;-75
2022/02/13 06:47:52;;;;;;;11.17;2.00;;;28.30;45.40;;;;;;5034618;28;20184;-76
2022/02/13 06:50:20;;;;;;;9.47;2.03;;;28.60;44.90;;;;;;5030135;28;20185;-78
2022/02/13 06:52:47;;;;;;;10.87;2.13;;;28.30;45.80;;;;;;5034498;28;20173;-74
2022/02/13 06:55:15;;;;;;;9.33;2.20;;;28.20;45.10;;;;;;5030710;28;20192;-72
2022/02/13 06:57:50;;;;;;;8.10;2.03;;;28.70;44.10;;;;;;5035042;28;20173;-77
2022/02/13 07:00:18;;;;;;;7.83;1.67;;;27.80;46.10;;;;;;5032475;28;20188;-76
2022/02/13 07:02:47;;;;;;;9.20;1.87;;;28.20;45.40;;;;;;5033900;28;20220;-74
2022/02/13 07:05:15;;;;;;;6.03;1.70;;;27.60;47.10;;;;;;5033886;28;20181;-75
2022/02/13 07:07:43;;;;;;;11.00;1.83;;;28.30;45.30;;;;;;5034773;28;20192;-80
2022/02/13 07:10:12;;;;;;;11.47;4.10;;;28.20;45.70;;;;;;5034723;28;20246;-75
2022/02/13 07:12:40;;;;;;;13.87;3.63;;;28.20;45.80;;;;;;5034023;28;20176;-74
2022/02/13 07:15:09;;;;;;;7.17;2.83;;;28.60;45.20;;;;;;5031666;28;20177;-74
2022/02/13 07:17:37;;;;;;;8.53;2.87;;;28.10;45.40;;;;;;5034096;28;20185;-74
2022/02/13 07:20:07;;;;;;;11.23;2.13;;;28.10;46.10;;;;;;5034219;28;20700;-72
2022/02/13 07:22:35;;;;;;;8.43;1.83;;;28.30;46.20;;;;;;5031259;28;20215;-74
2022/02/13 07:25:08;;;;;;;9.67;2.30;;;28.10;46.00;;;;;;5033894;28;20223;-73
2022/02/13 07:27:39;;;;;;;10.63;1.83;;;27.80;46.80;;;;;;5032313;28;20181;-78
2022/02/13 07:30:13;;;;;;;11.60;2.13;;;27.70;46.30;;;;;;5048214;28;20230;-74
2022/02/13 07:32:44;;;;;;;10.77;2.13;;;27.60;47.10;;;;;;5033335;28;20177;-74
2022/02/13 07:35:14;;;;;;;8.13;3.00;;;27.00;47.90;;;;;;5034215;28;20658;-75
2022/02/13 07:37:42;;;;;;;10.50;3.33;;;27.30;47.80;;;;;;5033064;28;20180;-74
2022/02/13 07:40:10;;;;;;;11.23;3.90;;;27.00;49.10;;;;;;5031869;28;20188;-74
2022/02/13 07:42:38;;;;;;;8.20;1.70;;;27.00;48.80;;;;;;5031771;28;20232;-74
2022/02/13 07:45:05;;;;;;;14.47;2.10;;;26.80;49.00;;;;;;5033671;28;20176;-75
2022/02/13 07:47:34;;;;;;;8.97;2.17;;;27.00;49.00;;;;;;5033127;28;20172;-75
2022/02/13 07:50:02;;;;;;;10.57;2.10;;;26.90;48.60;;;;;;5033469;28;20176;-77
2022/02/13 07:52:29;;;;;;;14.13;2.13;;;26.80;49.00;;;;;;5032419;28;20183;-74
2022/02/13 07:54:57;;;;;;;8.97;1.90;;;26.90;49.30;;;;;;5035217;28;20181;-73
2022/02/13 07:57:24;;;;;;;9.97;2.00;;;26.80;49.90;;;;;;5050926;28;20184;-74
2022/02/13 07:59:51;;;;;;;13.07;2.00;;;26.00;52.00;;;;;;5051175;28;20169;-73
2022/02/13 08:02:19;;;;;;;10.43;2.00;;;25.30;54.00;;;;;;5050759;28;20211;-74
2022/02/13 08:04:46;;;;;;;7.53;2.70;;;25.00;54.70;;;;;;5041553;28;20181;-73
2022/02/13 08:07:23;;;;;;;10.77;2.40;;;24.60;55.70;;;;;;5048892;28;20184;-73
2022/02/13 08:09:51;;;;;;;8.07;2.37;;;24.40;56.00;;;;;;5034343;28;20568;-73
2022/02/13 08:12:18;;;;;;;9.97;2.00;;;24.20;56.30;;;;;;5033650;28;20260;-74
2022/02/13 08:14:45;;;;;;;12.13;2.33;;;24.10;56.80;;;;;;5032982;28;20212;-75
2022/02/13 08:17:13;;;;;;;8.17;2.00;;;24.00;56.20;;;;;;5032958;28;20271;-73
2022/02/13 08:19:40;;;;;;;11.53;2.70;;;23.80;57.00;;;;;;5032830;28;20177;-73
2022/02/13 08:22:08;;;;;;;6.27;2.10;;;23.90;56.90;;;;;;5033173;28;20216;-73
2022/02/13 08:24:35;;;;;;;11.03;2.87;;;23.90;57.00;;;;;;5032782;28;20199;-73
2022/02/13 08:27:03;;;;;;;8.87;2.10;;;23.70;56.90;;;;;;5031642;28;20188;-73
2022/02/13 08:29:30;;;;;;;8.40;1.60;;;23.60;57.30;;;;;;5030392;28;20276;-73
2022/02/13 08:31:57;;;;;;;10.00;1.90;;;23.50;57.60;;;;;;5032219;28;20549;-74
2022/02/13 08:34:25;;;;;;;12.70;3.13;;;23.40;57.20;;;;;;5033664;28;20596;-72
2022/02/13 08:36:52;;;;;;;13.13;2.57;;;23.30;56.60;;;;;;5032914;28;20188;-73
2022/02/13 08:39:20;;;;;;;7.73;2.07;;;23.30;56.90;;;;;;5029898;28;20242;-72
2022/02/13 08:41:47;;;;;;;9.90;2.10;;;23.30;57.10;;;;;;5032354;28;20238;-72
2022/02/13 08:44:14;;;;;;;7.93;1.80;;;23.30;57.30;;;;;;5033001;28;20267;-73
2022/02/13 08:46:42;;;;;;;12.80;2.30;;;23.30;57.30;;;;;;5032069;28;20185;-74
2022/02/13 08:49:09;;;;;;;10.57;2.10;;;23.20;57.10;;;;;;5032457;28;20199;-74
2022/02/13 08:51:36;;;;;;;8.23;2.23;;;23.10;57.10;;;;;;5032531;28;20602;-73
2022/02/13 08:54:07;;;;;;;5.87;1.60;;;23.10;57.80;;;;;;5032635;28;20246;-72
2022/02/13 08:56:34;;;;;;;10.33;2.10;;;23.00;57.40;;;;;;5032115;28;20192;-72
2022/02/13 08:59:02;;;;;;;13.53;2.00;;;23.00;57.60;;;;;;5032676;28;20181;-73
2022/02/13 09:01:29;;;;;;;16.53;2.90;;;22.90;57.50;;;;;;5030569;28;20180;-73
2022/02/13 09:03:56;;;;;;;13.60;2.33;;;22.90;57.70;;;;;;5032560;28;20670;-73
2022/02/13 09:06:24;;;;;;;11.57;2.30;;;22.90;57.50;;;;;;5032133;28;20177;-72
2022/02/13 09:08:51;;;;;;;14.80;3.47;;;22.90;57.40;;;;;;5031772;28;20203;-74
2022/02/13 09:11:19;;;;;;;16.73;7.43;;;22.80;57.30;;;;;;5032319;28;20180;-73
2022/02/13 09:13:46;;;;;;;10.93;2.30;;;22.80;57.60;;;;;;5032071;28;20569;-72
2022/02/13 09:16:13;;;;;;;8.83;1.70;;;22.80;57.70;;;;;;5029842;28;20180;-73
2022/02/13 09:18:42;;;;;;;11.30;1.90;;;22.80;58.00;;;;;;5031758;28;20188;-72
2022/02/13 09:21:09;;;;;;;7.20;1.93;;;22.80;57.10;;;;;;5031618;28;20246;-73
2022/02/13 09:23:37;;;;;;;9.50;1.90;;;22.70;57.60;;;;;;5030565;28;20753;-73
2022/02/13 09:26:04;;;;;;;6.10;1.80;;;22.60;56.90;;;;;;5032495;28;20658;-72
2022/02/13 09:28:31;;;;;;;10.20;1.97;;;22.60;57.00;;;;;;5027793;28;20184;-72
2022/02/13 09:31:03;;;;;;;9.87;1.53;;;22.70;56.60;;;;;;5031848;28;20176;-73
2022/02/13 09:33:30;;;;;;;8.03;1.93;;;22.60;56.80;;;;;;5031221;28;20177;-72
2022/02/13 09:35:58;;;;;;;10.17;1.80;;;22.60;57.20;;;;;;5032444;28;20184;-71
2022/02/13 09:38:25;;;;;;;7.47;2.23;;;22.50;57.30;;;;;;5031824;28;20169;-71
2022/02/13 09:40:53;;;;;;;11.03;2.80;;;22.50;57.80;;;;;;5029631;28;20252;-73
2022/02/13 09:43:21;;;;;;;9.73;4.80;;;22.50;57.80;;;;;;5032082;28;20215;-72
2022/02/13 09:45:53;;;;;;;9.63;3.07;;;22.40;57.90;;;;;;5031818;28;20989;-73
2022/02/13 09:48:22;;;;;;;8.30;1.90;;;22.40;58.00;;;;;;5029668;28;20180;-72
2022/02/13 09:50:50;;;;;;;7.97;1.67;;;22.40;57.80;;;;;;5031350;28;20208;-71
2022/02/13 09:53:18;;;;;;;10.03;1.90;;;22.40;57.90;;;;;;5031378;28;20191;-72
2022/02/13 09:55:45;;;;;;;8.80;1.37;;;22.40;58.20;;;;;;5031315;28;20181;-73
2022/02/13 09:58:13;;;;;;;6.67;1.47;;;22.30;58.00;;;;;;5032180;28;20260;-71
2022/02/13 10:00:55;;;;;;;10.83;2.13;;;22.30;58.10;;;;;;5031742;28;20644;-71
2022/02/13 10:03:31;;;;;;;6.80;1.43;;;22.30;58.40;;;;;;5030688;28;20204;-72
2022/02/13 10:06:12;;;;;;;10.87;3.07;;;22.30;58.40;;;;;;5030627;28;20246;-72
2022/02/13 10:08:45;;;;;;;12.60;4.00;;;22.20;58.40;;;;;;5031439;28;20275;-72
2022/02/13 10:11:14;;;;;;;13.20;1.90;;;22.30;58.70;;;;;;5026839;28;20176;-72
2022/02/13 10:13:49;;;;;;;6.97;1.50;;;22.20;58.20;;;;;;5030705;28;20181;-71
2022/02/13 10:16:22;;;;;;;10.27;3.40;;;22.30;58.70;;;;;;5032406;28;20258;-72
2022/02/13 10:18:58;;;;;;;11.20;3.47;;;22.20;58.70;;;;;;5035604;28;20172;-73
2022/02/13 10:21:47;;;;;;;7.70;3.13;;;22.20;59.00;;;;;;5035731;28;20654;-72
2022/02/13 10:24:28;;;;;;;14.47;2.07;;;22.20;59.50;;;;;;5035435;28;20235;-71
2022/02/13 10:26:57;;;;;;;9.43;1.87;;;22.10;59.50;;;;;;5032912;28;20176;-71
2022/02/13 10:29:30;;;;;;;11.67;1.70;;;22.10;59.90;;;;;;5030379;28;20238;-71
2022/02/13 10:32:18;;;;;;;8.53;1.87;;;22.00;60.10;;;;;;5032794;28;20240;-71
2022/02/13 10:35:05;;;;;;;15.70;2.37;;;22.00;60.20;;;;;;5035332;28;20192;-71
2022/02/13 10:37:55;;;;;;;6.23;1.83;;;22.00;59.90;;;;;;5034640;28;20631;-72
2022/02/13 10:40:29;;;;;;;10.47;4.23;;;22.00;60.10;;;;;;5034889;28;20192;-72
2022/02/13 10:43:07;;;;;;;10.57;5.50;;;22.00;59.40;;;;;;5028175;28;20221;-72
2022/02/13 10:45:35;;;;;;;10.57;4.60;;;22.00;59.50;;;;;;5034464;28;20177;-72
2022/02/13 10:48:05;;;;;;;7.93;2.27;;;22.00;59.40;;;;;;5034927;28;20247;-71
2022/02/13 10:50:35;;;;;;;8.30;1.70;;;22.00;59.60;;;;;;5034994;28;20185;-72
2022/02/13 10:53:04;;;;;;;9.83;1.90;;;22.00;59.50;;;;;;5034757;28;20180;-72
2022/02/13 10:55:34;;;;;;;7.00;1.90;;;22.00;59.70;;;;;;5034127;28;20187;-73
2022/02/13 10:58:02;;;;;;;11.20;1.83;;;22.00;60.00;;;;;;5028987;28;20581;-71
2022/02/13 11:00:31;;;;;;;11.57;2.40;;;22.00;59.60;;;;;;5034881;28;20181;-72
2022/02/13 11:03:06;;;;;;;10.43;1.80;;;22.00;59.80;;;;;;5034373;28;20220;-72
2022/02/13 11:05:35;;;;;;;8.87;1.53;;;22.00;60.10;;;;;;5034982;28;20182;-71
2022/02/13 11:08:11;;;;;;;11.90;2.30;;;21.90;60.50;;;;;;5035104;28;20184;-71
2022/02/13 11:10:54;;;;;;;6.67;1.50;;;21.90;60.60;;;;;;5032753;28;20529;-72
2022/02/13 11:13:26;;;;;;;5.00;1.40;;;21.90;60.80;;;;;;5031171;28;20172;-72
2022/02/13 11:15:54;;;;;;;6.93;1.70;;;21.90;60.90;;;;;;5028579;28;20196;-71
2022/02/13 11:18:25;;;;;;;9.90;2.37;;;21.90;60.70;;;;;;5034051;28;20187;-72
2022/02/13 11:20:55;;;;;;;15.00;2.20;;;21.90;60.80;;;;;;5030530;28;20173;-72
2022/02/13 11:23:33;;;;;;;9.40;1.53;;;21.90;61.00;;;;;;5031609;28;20232;-72
2022/02/13 11:26:06;;;;;;;12.13;1.87;;;21.90;61.20;;;;;;5032680;28;20663;-72
2022/02/13 11:28:46;;;;;;;11.10;1.90;;;21.90;61.30;;;;;;5025861;28;20201;-72
2022/02/13 11:31:43;;;;;;;7.33;1.60;;;21.80;61.60;;;;;;5034043;28;20246;-72
2022/02/13 11:34:14;;;;;;;8.93;1.80;;;21.80;61.50;;;;;;5034105;28;20169;-72
2022/02/13 11:36:58;;;;;;;9.27;1.97;;;21.70;61.90;;;;;;5034399;28;20184;-72
2022/02/13 11:39:37;;;;;;;8.67;1.47;;;21.60;62.40;;;;;;5033910;28;20204;-72
2022/02/13 11:42:10;;;;;;;10.27;1.67;;;21.60;62.00;;;;;;5029819;28;20231;-72
2022/02/13 11:44:52;;;;;;;11.27;1.53;;;21.60;62.10;;;;;;5033721;28;20268;-72
2022/02/13 11:47:45;;;;;;;10.47;1.93;;;21.50;62.30;;;;;;5033708;28;20212;-73
2022/02/13 11:50:21;;;;;;;9.27;2.20;;;21.50;62.50;;;;;;5029698;28;20196;-73
2022/02/13 11:53:00;;;;;;;7.10;1.73;;;21.40;63.00;;;;;;5033845;28;20227;-73
2022/02/13 11:55:32;;;;;;;7.33;1.70;;;21.30;63.40;;;;;;5034187;28;20187;-72
2022/02/13 11:58:04;;;;;;;8.70;2.07;;;21.30;63.60;;;;;;5033649;28;20173;-72
2022/02/13 12:01:04;;;;;;;9.27;1.83;;;21.20;63.50;;;;;;5033585;28;20184;-72
2022/02/13 12:03:43;;;;;;;29.80;13.87;;;21.20;63.40;;;;;;5025836;28;20240;-72
2022/02/13 12:06:10;;;;;;;8.93;2.07;;;21.20;63.80;;;;;;5031619;28;20184;-72
2022/02/13 12:08:37;;;;;;;8.10;1.47;;;21.20;64.40;;;;;;5032540;28;20208;-72
2022/02/13 12:11:06;;;;;;;5.27;1.97;;;21.10;64.80;;;;;;5030476;28;20267;-72
2022/02/13 12:13:36;;;;;;;11.80;2.00;;;21.00;65.20;;;;;;5032288;28;20255;-72
2022/02/13 12:16:08;;;;;;;13.67;1.97;;;20.90;66.10;;;;;;5032205;28;20639;-72
2022/02/13 12:18:36;;;;;;;9.03;1.77;;;20.80;66.50;;;;;;5032570;28;20215;-72
2022/02/13 12:21:07;;;;;;;6.83;1.70;;;20.80;66.90;;;;;;5033509;28;20608;-72
2022/02/13 12:23:35;;;;;;;9.43;2.20;;;20.70;66.70;;;;;;5032353;28;20702;-72
2022/02/13 12:26:04;;;;;;;11.60;1.63;;;20.60;67.40;;;;;;5033439;28;20238;-72
2022/02/13 12:28:37;;;;;;;10.47;2.33;;;20.60;67.70;;;;;;5030950;28;20192;-72
2022/02/13 12:31:06;;;;;;;11.13;2.00;;;20.50;68.70;;;;;;5030216;28;20188;-73
2022/02/13 12:33:43;;;;;;;8.37;1.73;;;20.40;68.20;;;;;;5033403;28;20192;-74
2022/02/13 12:36:11;;;;;;;11.77;2.30;;;20.30;69.00;;;;;;5030147;28;20207;-74
2022/02/13 12:38:38;;;;;;;10.50;1.80;;;20.30;69.70;;;;;;5032240;28;20219;-73
2022/02/13 12:41:06;;;;;;;6.77;2.10;;;20.30;69.70;;;;;;5032491;28;20220;-73
2022/02/13 12:43:33;;;;;;;14.83;2.53;;;20.30;69.80;;;;;;5032519;28;20215;-72
2022/02/13 12:46:00;;;;;;;16.10;2.40;;;20.30;70.30;;;;;;5032533;28;20703;-73
2022/02/13 12:48:29;;;;;;;13.83;2.57;;;20.20;70.50;;;;;;5032239;28;20179;-72
2022/02/13 12:51:00;;;;;;;9.10;1.67;;;20.20;70.70;;;;;;5032619;28;20181;-73
2022/02/13 12:53:31;;;;;;;7.70;1.83;;;20.10;70.80;;;;;;5032718;28;20695;-72